TAF Flughafenprognosen

Nürnberg (Lang-TAF), ausgegeben Di 26.07. 13:00

EDDN 261100Z 2612/2712 28005KT 9999 SCT025 PROB30 TEMPO 2612/2618 28015G25KT 4000 TSRA BKN020CB TEMPO 2701/2707 3500 BR BKN004 TEMPO 2709/2712 TSRA BKN030CB
GültigkeitVonBisWind in Beaufort
(Knoten)
Wolken
(Meter über Grund)
Sichtweite
(Meter)
Wettererscheinung
Grundvorhersage Di 26.07. 14:00 Mi 27.07. 14:00 W 2 (5) Wolkig (760) >= 10000  
Vorübergehend
(Wahrscheinlichkeit 30 %)
Di 26.07. 14:00 Di 26.07. 20:00 W 4 (15) - 6 (25) Stark bewölkt Cb (610) 4000 Gewitter mit Regen
Vorübergehend Mi 27.07. 03:00 Mi 27.07. 09:00   Stark bewölkt (120) 3500 Nebeldunst
Vorübergehend Mi 27.07. 11:00 Mi 27.07. 14:00   Stark bewölkt Cb (910)   Gewitter mit Regen

 

Hof (Kurz-TAF), ausgegeben Di 26.07. 13:00

EDQM 261100Z 2612/2621 02004KT 9999 FEW020 TEMPO 2612/2620 24015G25KT 4000 TSRA BKN020CB
GültigkeitVonBisWind in Beaufort
(Knoten)
Wolken
(Meter über Grund)
Sichtweite
(Meter)
Wettererscheinung
Grundvorhersage Di 26.07. 14:00 Di 26.07. 23:00 NNO 2 (4) Leicht bewölkt (610) >= 10000  
Vorübergehend Di 26.07. 14:00 Di 26.07. 22:00 WSW 4 (15) - 6 (25) Stark bewölkt Cb (610) 4000 Gewitter mit Regen

 

Erfurt-Bindersleben (Lang-TAF), ausgegeben Di 26.07. 13:00

EDDE 261100Z 2612/2712 05005KT 9999 SCT030 TEMPO 2612/2618 SHRA SCT020CB PROB40 TEMPO 2612/2618 05015G25KT 4500 TSRA BECMG 2621/2624 23004KT TEMPO 2706/2712 SHRA SCT015CB
GültigkeitVonBisWind in Beaufort
(Knoten)
Wolken
(Meter über Grund)
Sichtweite
(Meter)
Wettererscheinung
Grundvorhersage Di 26.07. 14:00 Mi 27.07. 14:00 NO 2 (5) Wolkig (910) >= 10000  
Vorübergehend Di 26.07. 14:00 Di 26.07. 20:00   Wolkig Cb (610)   Regen-Schauer
Vorübergehend
(Wahrscheinlichkeit 40 %)
Di 26.07. 14:00 Di 26.07. 20:00 NO 4 (15) - 6 (25)   4500 Gewitter mit Regen
Übergang zu Di 26.07. 23:00 Mi 27.07. 02:00 SW 2 (4)      
Vorübergehend Mi 27.07. 08:00 Mi 27.07. 14:00   Wolkig Cb (460)   Regen-Schauer

 

Augsburg (Kurz-TAF), ausgegeben Di 26.07. 13:00

EDMA 261100Z 2612/2621 VRB03KT CAVOK TEMPO 2612/2620 26015G25KT 4000 TSRA BKN030CB
GültigkeitVonBisWind in Beaufort
(Knoten)
Wolken
(Meter über Grund)
Sichtweite
(Meter)
Wettererscheinung
Grundvorhersage Di 26.07. 14:00 Di 26.07. 23:00 Uml 2 (3) Nicht signifikant >= 10000  
Vorübergehend Di 26.07. 14:00 Di 26.07. 22:00 W 4 (15) - 6 (25) Stark bewölkt Cb (910) 4000 Gewitter mit Regen

 

Frankfurt (Lang-TAF), ausgegeben Di 26.07. 13:00

EDDF 261100Z 2612/2718 35005KT 9999 SCT045 PROB30 TEMPO 2613/2619 TSRA BKN035CB PROB30 TEMPO 2619/2701 SHRA BKN030TCU BECMG 2620/2622 VRB03KT BECMG 2705/2707 23005KT BECMG 2709/2711 26010KT
GültigkeitVonBisWind in Beaufort
(Knoten)
Wolken
(Meter über Grund)
Sichtweite
(Meter)
Wettererscheinung
Grundvorhersage Di 26.07. 14:00 Mi 27.07. 20:00 N 2 (5) Wolkig (1400) >= 10000  
Vorübergehend
(Wahrscheinlichkeit 30 %)
Di 26.07. 15:00 Di 26.07. 21:00   Stark bewölkt Cb (1100)   Gewitter mit Regen
Vorübergehend
(Wahrscheinlichkeit 30 %)
Di 26.07. 21:00 Mi 27.07. 03:00   Stark bewölkt (910)   Regen-Schauer
Übergang zu Di 26.07. 22:00 Mi 27.07. 00:00 Uml 2 (3)      
Übergang zu Mi 27.07. 07:00 Mi 27.07. 09:00 SW 2 (5)      
Übergang zu Mi 27.07. 11:00 Mi 27.07. 13:00 W 3 (10)      

 

Stuttgart (Lang-TAF), ausgegeben Di 26.07. 13:00

EDDS 261100Z 2612/2712 34005KT 9999 SCT030 PROB30 TEMPO 2612/2620 TSRA BKN035CB BECMG 2618/2620 26003KT PROB30 TEMPO 2620/2705 SHRA BKN014 BKN020CB BECMG 2710/2712 29008KT
GültigkeitVonBisWind in Beaufort
(Knoten)
Wolken
(Meter über Grund)
Sichtweite
(Meter)
Wettererscheinung
Grundvorhersage Di 26.07. 14:00 Mi 27.07. 14:00 NNW 2 (5) Wolkig (910) >= 10000  
Vorübergehend
(Wahrscheinlichkeit 30 %)
Di 26.07. 14:00 Di 26.07. 22:00   Stark bewölkt Cb (1100)   Gewitter mit Regen
Übergang zu Di 26.07. 20:00 Di 26.07. 22:00 W 2 (3)      
Vorübergehend
(Wahrscheinlichkeit 30 %)
Di 26.07. 22:00 Mi 27.07. 07:00   Stark bewölkt Cb (610)
Stark bewölkt (430)
  Regen-Schauer
Übergang zu Mi 27.07. 12:00 Mi 27.07. 14:00 WNW 3 (8)      

 

München (Lang-TAF), ausgegeben Di 26.07. 13:00

EDDM 261100Z 2612/2718 34005KT 9999 SCT025 TEMPO 2612/2619 24015G25KT 4000 TSRA BKN020CB TEMPO 2701/2706 4000 BR BKN008 TEMPO 2711/2716 TSRA BKN025CB
GültigkeitVonBisWind in Beaufort
(Knoten)
Wolken
(Meter über Grund)
Sichtweite
(Meter)
Wettererscheinung
Grundvorhersage Di 26.07. 14:00 Mi 27.07. 20:00 NNW 2 (5) Wolkig (760) >= 10000  
Vorübergehend Di 26.07. 14:00 Di 26.07. 21:00 WSW 4 (15) - 6 (25) Stark bewölkt Cb (610) 4000 Gewitter mit Regen
Vorübergehend Mi 27.07. 03:00 Mi 27.07. 08:00   Stark bewölkt (240) 4000 Nebeldunst
Vorübergehend Mi 27.07. 13:00 Mi 27.07. 18:00   Stark bewölkt Cb (760)   Gewitter mit Regen